Time;durP1;ratioP1;P1;durP2;ratioP2;P2;SDS_P1;SDS_P2;PMS_P1;PMS_P2;Temp;Humidity;BMP_temperature;BMP_pressure;BME280_temperature;BME280_humidity;BME280_pressure;Samples;Min_cycle;Max_cycle;Signal;HPM_P1;HPM_P2
2022/11/04 00:01:08;;;;;;;;;;;;;;;9.27;100.00;99705.88;5042411;28;20531;-75
2022/11/04 00:03:33;;;;;;;;;;;;;;;9.27;100.00;99708.53;5028220;28;20027;-74
2022/11/04 00:06:01;;;;;;;;;;;;;;;9.28;100.00;99725.19;5015787;28;20369;-75
2022/11/04 00:08:27;;;;;;;;;;;;;;;9.27;100.00;99724.38;5022376;28;20501;-74
2022/11/04 00:13:37;;;;;;;;;;;;;;;9.24;100.00;99728.03;5046165;28;19932;-75
2022/11/04 00:18:46;;;;;;;;;;;;;;;9.24;100.00;99733.31;5046175;28;20111;-76
2022/11/04 00:29:23;;;;;;;;;;;;;;;9.27;100.00;99757.84;5026307;28;19971;-76
2022/11/04 00:34:33;;;;;;;;;;;;;;;9.26;100.00;99756.16;5045903;28;19929;-75
2022/11/04 00:36:59;;;;;;;;;;;;;;;9.27;100.00;99771.03;5059967;28;20399;-76
2022/11/04 00:39:24;;;;;;;;;;;;;;;9.27;100.00;99789.53;5025350;28;20747;-76
2022/11/04 00:41:49;;;;;;;;;;;;;;;9.26;100.00;99793.94;5026436;28;19940;-75
2022/11/04 00:44:15;;;;;;;;;;;;;;;9.27;100.00;99792.16;5045575;28;21257;-75
2022/11/04 00:46:40;;;;;;;;;;;;;;;9.25;100.00;99786.97;5029790;28;19932;-75
2022/11/04 00:49:05;;;;;;;;;;;;;;;9.26;100.00;99783.38;5024954;28;20341;-75
2022/11/04 00:51:31;;;;;;;;;;;;;;;9.26;100.00;99780.75;5015630;28;19932;-75
2022/11/04 00:53:59;;;;;;;;;;;;;;;9.24;100.00;99780.84;5022993;28;20033;-76
2022/11/04 00:56:25;;;;;;;;;;;;;;;9.24;100.00;99786.13;5045097;28;20009;-76
2022/11/04 00:58:50;;;;;;;;;;;;;;;9.24;100.00;99795.84;5024528;28;20583;-76
2022/11/04 01:01:16;;;;;;;;;;;;;;;9.24;100.00;99793.19;5023211;28;20101;-76
2022/11/04 01:03:42;;;;;;;;;;;;;;;9.22;100.00;99806.47;5041881;28;20300;-76
2022/11/04 01:06:07;;;;;;;;;;;;;;;9.21;100.00;99807.41;5045262;28;20023;-75
2022/11/04 01:08:33;;;;;;;;;;;;;;;9.20;100.00;99807.50;5025055;28;20016;-75
2022/11/04 01:11:05;;;;;;;;;;;;;;;9.20;100.00;99820.69;5031374;28;20348;-76
2022/11/04 01:13:30;;;;;;;;;;;;;;;9.18;100.00;99827.88;5022737;28;19929;-76
2022/11/04 01:16:03;;;;;;;;;;;;;;;9.16;100.00;99835.88;5025018;28;19990;-76
2022/11/04 01:18:28;;;;;;;;;;;;;;;9.15;100.00;99835.97;5044881;28;19925;-75
2022/11/04 01:20:54;;;;;;;;;;;;;;;9.15;100.00;99838.63;5003280;28;19951;-76
2022/11/04 01:23:20;;;;;;;;;;;;;;;9.14;100.00;99837.75;5043609;28;19925;-74
2022/11/04 01:25:45;;;;;;;;;;;;;;;9.15;100.00;99835.97;5024033;28;19923;-76
2022/11/04 01:28:10;;;;;;;;;;;;;;;9.15;100.00;99838.63;5025070;28;20184;-75
2022/11/04 01:30:39;;;;;;;;;;;;;;;9.14;100.00;99843.03;5044519;28;19928;-75
2022/11/04 01:33:04;;;;;;;;;;;;;;;9.15;100.00;99854.47;5058130;28;19932;-75
2022/11/04 01:35:30;;;;;;;;;;;;;;;9.15;100.00;99857.09;5042122;28;19968;-76
2022/11/04 01:37:56;;;;;;;;;;;;;;;9.15;100.00;99865.84;5023901;28;19924;-76
2022/11/04 01:40:22;;;;;;;;;;;;;;;9.15;100.00;99870.31;5044884;28;19933;-75
2022/11/04 01:42:47;;;;;;;;;;;;;;;9.15;100.00;99875.59;5044375;28;19955;-75
2022/11/04 01:45:13;;;;;;;;;;;;;;;9.15;100.00;99875.59;5043981;28;19933;-76
2022/11/04 01:47:39;;;;;;;;;;;;;;;9.14;100.00;99874.72;5044599;28;19968;-76
2022/11/04 01:50:21;;;;;;;;;;;;;;;9.14;100.00;99885.28;5028616;28;19925;-75
2022/11/04 01:52:47;;;;;;;;;;;;;;;9.16;100.00;99887.84;5014366;28;19935;-75
2022/11/04 01:55:14;;;;;;;;;;;;;;;9.17;100.00;99889.56;5044112;28;19929;-75
2022/11/04 01:57:40;;;;;;;;;;;;;;;9.16;100.00;99893.97;5030629;28;19924;-75
2022/11/04 02:00:06;;;;;;;;;;;;;;;9.18;100.00;99901.81;5028103;28;20196;-76
2022/11/04 02:02:32;;;;;;;;;;;;;;;9.19;100.00;99904.38;5024717;28;19982;-75
2022/11/04 02:04:57;;;;;;;;;;;;;;;9.19;100.00;99903.50;5013166;28;19933;-76
2022/11/04 02:07:22;;;;;;;;;;;;;;;9.19;100.00;99906.16;5030662;28;19929;-76
2022/11/04 02:09:48;;;;;;;;;;;;;;;9.20;100.00;99900.81;5013128;28;19936;-75
2022/11/04 02:14:57;;;;;;;;;;;;;;;9.20;100.00;99911.38;5043228;28;20541;-75
2022/11/04 02:17:28;;;;;;;;;;;;;;;9.21;100.00;99915.69;5015731;28;20065;-75
2022/11/04 02:19:58;;;;;;;;;;;;;;;9.21;100.00;99914.88;5017377;28;19924;-75
2022/11/04 02:22:42;;;;;;;;;;;;;;;9.21;100.00;99922.78;5030242;28;20011;-75
2022/11/04 02:25:13;;;;;;;;;;;;;;;9.20;100.00;99924.56;5043307;28;20299;-75
2022/11/04 02:27:42;;;;;;;;;;;;;;;9.20;100.00;99928.97;5044223;28;19932;-76
2022/11/04 02:30:07;;;;;;;;;;;;;;;9.20;100.00;99934.25;5022219;28;20387;-75
2022/11/04 02:32:41;;;;;;;;;;;;;;;9.20;100.00;99926.34;5043224;28;19928;-75
2022/11/04 02:35:09;;;;;;;;;;;;;;;9.21;100.00;99938.63;5026557;28;20319;-76
2022/11/04 02:37:53;;;;;;;;;;;;;;;9.19;100.00;99935.19;5029706;28;20029;-76
2022/11/04 02:40:37;;;;;;;;;;;;;;;9.18;100.00;99944.06;5030526;28;19931;-75
2022/11/04 02:43:09;;;;;;;;;;;;;;;9.15;100.00;99950.38;5043959;28;19928;-75
2022/11/04 02:45:34;;;;;;;;;;;;;;;9.14;100.00;99945.19;5022185;28;20324;-76
2022/11/04 02:48:02;;;;;;;;;;;;;;;9.09;100.00;99946.28;5042856;28;20325;-76
2022/11/04 02:50:37;;;;;;;;;;;;;;;9.08;100.00;99960.41;5042353;28;19998;-75
2022/11/04 02:53:02;;;;;;;;;;;;;;;9.09;100.00;99958.63;5029019;28;20399;-75
2022/11/04 02:55:33;;;;;;;;;;;;;;;9.07;100.00;99966.63;5014198;28;19929;-76
2022/11/04 02:57:58;;;;;;;;;;;;;;;9.08;100.00;99975.41;5029611;28;19932;-75
2022/11/04 03:00:24;;;;;;;;;;;;;;;9.06;100.00;99972.81;5039703;28;19928;-75
2022/11/04 03:02:54;;;;;;;;;;;;;;;9.03;100.00;99978.28;5027508;28;20387;-75
2022/11/04 03:05:21;;;;;;;;;;;;;;;9.03;100.00;99987.97;5040271;28;19936;-75
2022/11/04 03:07:47;;;;;;;;;;;;;;;9.02;100.00;100002.13;5026830;28;19930;-75
2022/11/04 03:10:15;;;;;;;;;;;;;;;9.01;100.00;100011.84;5015609;28;19963;-76
2022/11/04 03:12:41;;;;;;;;;;;;;;;8.98;100.00;100014.63;5029806;28;19929;-75
2022/11/04 03:15:08;;;;;;;;;;;;;;;8.97;100.00;100023.50;5027248;28;19931;-76
2022/11/04 03:18:00;;;;;;;;;;;;;;;8.93;100.00;100030.72;5009375;28;19929;-76
2022/11/04 03:20:26;;;;;;;;;;;;;;;8.89;100.00;100028.31;5033030;28;19928;-78
2022/11/04 03:22:54;;;;;;;;;;;;;;;8.85;100.00;100024.97;5039693;28;20499;-78
2022/11/04 03:25:20;;;;;;;;;;;;;;;8.82;100.00;100030.41;5039865;28;19927;-76
2022/11/04 03:27:56;;;;;;;;;;;;;;;8.79;100.00;100035.84;5040105;28;19924;-76
2022/11/04 03:30:21;;;;;;;;;;;;;;;8.78;100.00;100037.63;5010452;28;19981;-76
2022/11/04 03:33:07;;;;;;;;;;;;;;;8.75;100.00;100047.47;5028864;28;19932;-76
2022/11/04 03:35:33;;;;;;;;;;;;;;;8.70;100.00;100050.34;5028974;28;19932;-76
2022/11/04 03:37:58;;;;;;;;;;;;;;;8.65;100.00;100052.38;5028560;28;19936;-76
2022/11/04 03:40:24;;;;;;;;;;;;;;;8.60;100.00;100055.25;5022718;28;19940;-77
2022/11/04 03:42:52;;;;;;;;;;;;;;;8.58;100.00;100061.53;5022028;28;19928;-77
2022/11/04 03:45:17;;;;;;;;;;;;;;;8.55;100.00;100068.66;5041010;28;19929;-77
2022/11/04 03:47:43;;;;;;;;;;;;;;;8.53;100.00;100074.94;5028980;28;19929;-77
2022/11/04 03:50:11;;;;;;;;;;;;;;;8.49;100.00;100082.13;5041972;28;20661;-77
2022/11/04 03:52:36;;;;;;;;;;;;;;;8.48;100.00;100090.09;5039021;28;20851;-77
2022/11/04 03:55:02;;;;;;;;;;;;;;;8.48;100.00;100095.38;5041973;28;19936;-77
2022/11/04 03:57:40;;;;;;;;;;;;;;;8.47;100.00;100097.19;5021694;28;19932;-77
2022/11/04 04:00:15;;;;;;;;;;;;;;;8.43;100.00;100093.84;5040650;28;19929;-77
2022/11/04 04:02:56;;;;;;;;;;;;;;;8.41;100.00;100094.84;5039076;28;19928;-77
2022/11/04 04:05:21;;;;;;;;;;;;;;;8.37;100.00;100107.31;5041828;28;20399;-77
2022/11/04 04:07:55;;;;;;;;;;;;;;;8.34;100.00;100101.34;5041791;28;19929;-77
2022/11/04 04:10:44;;;;;;;;;;;;;;;8.32;100.00;100119.88;5022206;28;20061;-77
2022/11/04 04:13:15;;;;;;;;;;;;;;;8.29;100.00;100118.22;5017183;28;19924;-77
2022/11/04 04:15:52;;;;;;;;;;;;;;;8.27;100.00;100122.72;5041629;28;19924;-77
2022/11/04 04:18:19;;;;;;;;;;;;;;;8.24;100.00;100125.50;5022858;28;19987;-77
2022/11/04 04:20:46;;;;;;;;;;;;;;;8.25;100.00;100132.50;5025767;28;19925;-77
2022/11/04 04:28:46;;;;;;;;;;;;;;;8.21;100.00;100154.66;5029578;28;19924;-77
2022/11/04 04:31:11;;;;;;;;;;;;;;;8.23;100.00;100158.06;5039568;28;19939;-77
2022/11/04 04:33:37;;;;;;;;;;;;;;;8.24;100.00;100158.94;5026388;28;20296;-77
2022/11/04 04:36:02;;;;;;;;;;;;;;;8.25;100.00;100158.88;5021979;28;20425;-77
2022/11/04 04:46:43;;;;;;;;;;;;;;;8.23;100.00;100175.69;5041881;28;19928;-77
2022/11/04 04:49:09;;;;;;;;;;;;;;;8.24;100.00;100180.03;5028078;28;19929;-77
2022/11/04 04:51:35;;;;;;;;;;;;;;;8.22;100.00;100185.38;5041167;28;20288;-77
2022/11/04 04:54:00;;;;;;;;;;;;;;;8.21;100.00;100191.56;5025616;28;19971;-77
2022/11/04 04:56:26;;;;;;;;;;;;;;;8.20;100.00;100195.16;5021200;28;19928;-77
2022/11/04 04:58:51;;;;;;;;;;;;;;;8.19;100.00;100187.28;5029425;28;20024;-77
2022/11/04 05:01:16;;;;;;;;;;;;;;;8.18;100.00;100191.72;5012722;28;19936;-77
2022/11/04 05:03:42;;;;;;;;;;;;;;;8.17;100.00;100203.19;5045371;28;20023;-77
2022/11/04 05:06:07;;;;;;;;;;;;;;;8.16;100.00;100204.09;5045158;28;19944;-77
2022/11/04 05:08:34;;;;;;;;;;;;;;;8.17;100.00;100210.25;5041817;28;20405;-77
2022/11/04 05:10:59;;;;;;;;;;;;;;;8.12;100.00;100213.94;5045085;28;19929;-77
2022/11/04 05:13:24;;;;;;;;;;;;;;;8.12;100.00;100221.00;5044526;28;19940;-77
2022/11/04 05:15:50;;;;;;;;;;;;;;;8.07;100.00;100215.09;5024709;28;19924;-77
2022/11/04 05:18:15;;;;;;;;;;;;;;;8.03;100.00;100219.63;5042200;28;19936;-76
2022/11/04 05:20:41;;;;;;;;;;;;;;;7.97;100.00;100227.81;5043753;28;19958;-76
2022/11/04 05:23:06;;;;;;;;;;;;;;;7.94;100.00;100223.53;5042745;28;19934;-77
2022/11/04 05:25:32;;;;;;;;;;;;;;;7.90;100.00;100226.38;5045161;28;21501;-77
2022/11/04 05:28:01;;;;;;;;;;;;;;;7.87;100.00;100224.72;5029100;28;21550;-76
2022/11/04 05:30:26;;;;;;;;;;;;;;;7.84;100.00;100227.53;5042169;28;19932;-77
2022/11/04 05:32:51;;;;;;;;;;;;;;;7.82;100.00;100226.72;5030950;28;20554;-76
2022/11/04 05:35:17;;;;;;;;;;;;;;;7.78;100.00;100233.06;4999998;28;20434;-77
2022/11/04 05:37:42;;;;;;;;;;;;;;;7.73;100.00;100236.72;5044332;28;19929;-77
2022/11/04 05:40:08;;;;;;;;;;;;;;;7.73;100.00;100234.09;5022240;28;20023;-77
2022/11/04 05:42:35;;;;;;;;;;;;;;;7.71;100.00;100241.22;5043431;28;20508;-77
2022/11/04 05:45:01;;;;;;;;;;;;;;;7.71;100.00;100240.34;5018035;28;19928;-77
2022/11/04 05:47:26;;;;;;;;;;;;;;;7.69;100.00;100240.41;5044754;28;19997;-76
2022/11/04 05:49:52;;;;;;;;;;;;;;;7.69;100.00;100237.78;5043898;28;19970;-77
2022/11/04 05:52:17;;;;;;;;;;;;;;;7.69;100.00;100250.94;5044913;28;19932;-76
2022/11/04 05:54:42;;;;;;;;;;;;;;;7.68;100.00;100245.78;5044432;28;19924;-76
2022/11/04 05:57:08;;;;;;;;;;;;;;;7.67;100.00;100251.97;5043629;28;19924;-76
2022/11/04 05:59:33;;;;;;;;;;;;;;;7.69;100.00;100252.75;5027874;28;20531;-76
2022/11/04 06:01:59;;;;;;;;;;;;;;;7.70;100.00;100254.44;5044157;28;19947;-76
2022/11/04 06:04:24;;;;;;;;;;;;;;;7.69;100.00;100258.84;5043608;28;19978;-76
2022/11/04 06:06:49;;;;;;;;;;;;;;;7.70;100.00;100259.72;5044208;28;19928;-76
2022/11/04 06:09:15;;;;;;;;;;;;;;;7.69;100.00;100260.66;5057341;28;19928;-76
2022/11/04 06:11:40;;;;;;;;;;;;;;;7.69;100.00;100268.56;5043903;28;19977;-76
2022/11/04 06:14:05;;;;;;;;;;;;;;;7.69;100.00;100272.03;5043818;28;19936;-77
2022/11/04 06:16:31;;;;;;;;;;;;;;;7.70;100.00;100278.16;5044007;28;19929;-77
2022/11/04 06:18:56;;;;;;;;;;;;;;;7.69;100.00;100277.28;5043586;28;19931;-77
2022/11/04 06:21:23;;;;;;;;;;;;;;;7.68;100.00;100282.66;5044090;28;19924;-77
2022/11/04 06:23:49;;;;;;;;;;;;;;;7.65;100.00;100283.63;5043585;28;19940;-77
2022/11/04 06:26:14;;;;;;;;;;;;;;;7.65;100.00;100280.13;5042456;28;19975;-76
2022/11/04 06:28:40;;;;;;;;;;;;;;;7.63;100.00;100285.47;5029861;28;19935;-76
2022/11/04 06:31:06;;;;;;;;;;;;;;;7.60;100.00;100285.59;5029824;28;19928;-76
2022/11/04 06:33:31;;;;;;;;;;;;;;;7.58;100.00;100290.09;5042187;28;19933;-76
2022/11/04 06:35:57;;;;;;;;;;;;;;;7.56;100.00;100286.63;5043275;28;19986;-75
2022/11/04 06:38:23;;;;;;;;;;;;;;;7.54;100.00;100285.84;5029543;28;19928;-77
2022/11/04 06:40:48;;;;;;;;;;;;;;;7.52;100.00;100285.06;5023892;28;19968;-76
2022/11/04 06:43:13;;;;;;;;;;;;;;;7.47;100.00;100282.63;5027513;28;20421;-75
2022/11/04 06:45:39;;;;;;;;;;;;;;;7.44;100.00;100286.25;5043386;28;19960;-76
2022/11/04 06:48:04;;;;;;;;;;;;;;;7.39;100.00;100296.09;5023557;28;19936;-76
2022/11/04 06:50:30;;;;;;;;;;;;;;;7.34;100.00;100300.69;5027030;28;20312;-76
2022/11/04 06:52:55;;;;;;;;;;;;;;;7.30;100.00;100299.97;5026552;28;20016;-76
2022/11/04 06:55:21;;;;;;;;;;;;;;;7.27;100.00;100299.25;5042995;28;20005;-76
2022/11/04 06:57:46;;;;;;;;;;;;;;;7.24;100.00;100307.28;5043002;28;19963;-77
2022/11/04 07:00:12;;;;;;;;;;;;;;;7.21;100.00;100302.97;5039792;28;19928;-77
2022/11/04 07:02:37;;;;;;;;;;;;;;;7.20;100.00;100317.91;5009257;28;19955;-77
2022/11/04 07:05:03;;;;;;;;;;;;;;;7.19;100.00;100328.50;5039795;28;20311;-76
2022/11/04 07:07:29;;;;;;;;;;;;;;;7.19;100.00;100333.75;5042579;28;19931;-76
2022/11/04 07:09:54;;;;;;;;;;;;;;;7.18;100.00;100332.91;5010116;28;19931;-76
2022/11/04 07:12:21;;;;;;;;;;;;;;;7.20;100.00;100336.34;5009501;28;19924;-75
2022/11/04 07:14:47;;;;;;;;;;;;;;;7.20;100.00;100341.59;5042819;28;20375;-76
2022/11/04 07:17:12;;;;;;;;;;;;;;;7.20;100.00;100346.03;5042795;28;19928;-76
2022/11/04 07:19:37;;;;;;;;;;;;;;;7.20;100.00;100348.66;5041572;28;19933;-75
2022/11/04 07:22:03;;;;;;;;;;;;;;;7.19;100.00;100349.56;5023227;28;19937;-76
2022/11/04 07:24:28;;;;;;;;;;;;;;;7.20;100.00;100360.03;5042051;28;20391;-76
2022/11/04 07:26:54;;;;;;;;;;;;;;;7.25;100.00;100369.53;5028889;28;20003;-76
2022/11/04 07:29:20;;;;;;;;;;;;;;;7.27;100.00;100365.94;5028838;28;19932;-76
2022/11/04 07:31:45;;;;;;;;;;;;;;;7.30;100.00;100370.22;5024086;28;20552;-75
2022/11/04 07:34:10;;;;;;;;;;;;;;;7.33;100.00;100376.22;5040204;28;19978;-76
2022/11/04 07:36:36;;;;;;;;;;;;;;;7.34;100.00;100380.56;5023414;28;20312;-76
2022/11/04 07:39:02;;;;;;;;;;;;;;;7.39;100.00;100383.03;5012949;28;20412;-76
2022/11/04 07:41:28;;;;;;;;;;;;;;;7.40;100.00;100395.28;5042660;28;20536;-76
2022/11/04 07:43:53;;;;;;;;;;;;;;;7.40;100.00;100400.53;5042235;28;19952;-76
2022/11/04 07:46:19;;;;;;;;;;;;;;;7.39;100.00;100408.50;5022775;28;19932;-76
2022/11/04 07:48:44;;;;;;;;;;;;;;;7.36;100.00;100420.03;5026083;28;19924;-77
2022/11/04 07:51:11;;;;;;;;;;;;;;;7.36;100.00;100422.66;5042470;28;20061;-76
2022/11/04 07:53:36;;;;;;;;;;;;;;;7.36;100.00;100430.56;4992112;28;19928;-75
2022/11/04 07:56:03;;;;;;;;;;;;;;;7.39;100.00;100435.69;5041725;28;19933;-75
2022/11/04 07:58:28;;;;;;;;;;;;;;;7.41;100.00;100440.91;5028741;28;19975;-76
2022/11/04 08:00:57;;;;;;;;;;;;;;;7.45;100.00;100438.09;5041460;28;20011;-76
2022/11/04 08:03:22;;;;;;;;;;;;;;;7.50;100.00;100450.22;5041304;28;19943;-76
2022/11/04 08:05:53;;;;;;;;;;;;;;;7.51;100.00;100449.31;5042073;28;19928;-76
2022/11/04 08:08:18;;;;;;;;;;;;;;;7.54;100.00;100452.69;5040353;28;19929;-76
2022/11/04 08:10:45;;;;;;;;;;;;;;;7.58;100.00;100456.06;5041695;28;19988;-76
2022/11/04 08:13:11;;;;;;;;;;;;;;;7.59;100.00;100460.41;5028437;28;20413;-76
2022/11/04 08:15:36;;;;;;;;;;;;;;;7.60;100.00;100460.34;5040740;28;20054;-76
2022/11/04 08:18:02;;;;;;;;;;;;;;;7.60;100.00;100464.75;5042439;28;20265;-76
2022/11/04 08:20:27;;;;;;;;;;;;;;;7.61;100.00;100462.06;5022740;28;19928;-76
2022/11/04 08:22:53;;;;;;;;;;;;;;;7.63;100.00;100459.34;5025309;28;19924;-76
2022/11/04 08:25:18;;;;;;;;;;;;;;;7.66;100.00;100455.75;5025623;28;19936;-77
2022/11/04 08:27:43;;;;;;;;;;;;;;;7.70;100.00;100454.72;4996573;28;19924;-76
2022/11/04 08:30:09;;;;;;;;;;;;;;;7.75;100.00;100458.03;5026246;28;20011;-77
2022/11/04 08:32:35;;;;;;;;;;;;;;;7.78;100.00;100462.31;5026952;28;20489;-76
2022/11/04 08:35:00;;;;;;;;;;;;;;;7.80;100.00;100466.59;5023681;28;19936;-77
2022/11/04 08:37:26;;;;;;;;;;;;;;;7.83;100.00;100469.13;5025485;28;21797;-76
2022/11/04 08:39:51;;;;;;;;;;;;;;;7.86;100.00;100470.78;5028898;28;19940;-76
2022/11/04 08:42:16;;;;;;;;;;;;;;;7.91;100.00;100474.09;4998771;28;19928;-76
2022/11/04 08:44:42;;;;;;;;;;;;;;;7.99;100.00;100487.81;5028318;28;21435;-76
2022/11/04 08:47:07;;;;;;;;;;;;;;;8.14;100.00;100493.38;5026630;28;20723;-76
2022/11/04 08:49:37;;;;;;;;;;;;;;;8.30;100.00;100490.97;5028422;28;19986;-76
2022/11/04 08:52:03;;;;;;;;;;;;;;;8.42;100.00;100495.75;5012819;28;19939;-77
2022/11/04 08:54:28;;;;;;;;;;;;;;;8.56;100.00;100495.19;5000137;28;19975;-77
2022/11/04 08:56:54;;;;;;;;;;;;;;;8.68;100.00;100488.50;5027155;28;19939;-77
2022/11/04 08:59:19;;;;;;;;;;;;;;;8.76;100.00;100484.72;5009583;28;19939;-76
2022/11/04 09:01:45;;;;;;;;;;;;;;;8.81;100.00;100485.34;5029238;28;19939;-77
2022/11/04 09:04:11;;;;;;;;;;;;;;;8.82;100.00;100476.50;5026561;28;20576;-77
2022/11/04 09:06:37;;;;;;;;;;;;;;;8.83;100.00;100484.34;5010570;28;19961;-77
2022/11/04 09:09:04;;;;;;;;;;;;;;;8.83;100.00;100488.78;5026042;28;19924;-77
2022/11/04 09:11:30;;;;;;;;;;;;;;;8.80;100.00;100497.69;5027910;28;20625;-78
2022/11/04 09:13:58;;;;;;;;;;;;;;;8.79;100.00;100503.91;5009532;28;21170;-77
2022/11/04 09:16:23;;;;;;;;;;;;;;;8.76;100.00;100500.53;5040941;28;20110;-78
2022/11/04 09:18:49;;;;;;;;;;;;;;;8.74;100.00;100500.59;5025636;28;19928;-78
2022/11/04 09:21:14;;;;;;;;;;;;;;;8.74;100.00;100505.00;5025813;28;19936;-78
2022/11/04 09:23:39;;;;;;;;;;;;;;;8.72;100.00;100506.88;5011192;28;19940;-78
2022/11/04 09:26:09;;;;;;;;;;;;;;;8.70;100.00;100504.28;5027092;28;20018;-78
2022/11/04 09:28:35;;;;;;;;;;;;;;;8.69;100.00;100499.94;5013323;28;20363;-78
2022/11/04 09:31:05;;;;;;;;;;;;;;;8.72;100.00;100510.34;5007396;28;19928;-78
2022/11/04 09:33:31;;;;;;;;;;;;;;;8.73;100.00;100501.53;5028351;28;19936;-78
2022/11/04 09:35:57;;;;;;;;;;;;;;;8.76;100.00;100503.19;5026595;28;20575;-78
2022/11/04 09:38:23;;;;;;;;;;;;;;;8.81;100.00;100507.34;5027177;28;19931;-79
2022/11/04 09:40:49;;;;;;;;;;;;;;;8.84;100.00;100511.63;5007381;28;20323;-78
2022/11/04 09:43:18;;;;;;;;;;;;;;;8.90;100.00;100511.34;5007382;28;19993;-77
2022/11/04 09:45:43;;;;;;;;;;;;;;;8.95;100.00;100521.72;5026339;28;20098;-77
2022/11/04 09:48:23;;;;;;;;;;;;;;;9.02;100.00;100524.94;5010238;28;19928;-77
2022/11/04 09:50:53;;;;;;;;;;;;;;;9.06;100.00;100527.34;5007665;28;19924;-76
2022/11/04 09:53:23;;;;;;;;;;;;;;;9.10;100.00;100542.16;5023341;28;19958;-77
2022/11/04 09:55:48;;;;;;;;;;;;;;;9.09;100.00;100537.81;5011219;28;19932;-77
2022/11/04 09:58:13;;;;;;;;;;;;;;;9.07;100.00;100550.22;5028053;28;19974;-77
2022/11/04 10:00:39;;;;;;;;;;;;;;;9.09;100.00;100558.94;5026836;28;19940;-77
2022/11/04 10:03:07;;;;;;;;;;;;;;;9.09;100.00;100564.22;5026563;28;19932;-76
2022/11/04 10:05:51;;;;;;;;;;;;;;;9.10;100.00;100571.19;5040774;28;19928;-76
2022/11/04 10:08:21;;;;;;;;;;;;;;;9.12;100.00;100584.34;5010099;28;19933;-75
2022/11/04 10:11:16;;;;;;;;;;;;;;;9.15;100.00;100588.66;5023982;28;20296;-77
2022/11/04 10:13:53;;;;;;;;;;;;;;;9.17;100.00;100586.78;5004777;28;20066;-77
2022/11/04 10:16:38;;;;;;;;;;;;;;;9.18;100.00;100599.06;5024187;28;19928;-77
2022/11/04 10:19:07;;;;;;;;;;;;;;;9.19;100.00;100601.66;5008566;28;20031;-77
2022/11/04 10:21:40;;;;;;;;;;;;;;;9.23;100.00;100595.31;5025178;28;20040;-78
2022/11/04 10:24:19;;;;;;;;;;;;;;;9.28;100.00;100600.41;5001689;28;19928;-77
2022/11/04 10:26:51;;;;;;;;;;;;;;;9.31;100.00;100594.97;4983581;28;19929;-77
2022/11/04 10:29:35;;;;;;;;;;;;;;;9.33;100.00;100597.53;5009092;28;21590;-78
2022/11/04 10:32:00;;;;;;;;;;;;;;;9.36;100.00;100603.56;5017926;28;19956;-81
2022/11/04 10:34:40;;;;;;;;;;;;;;;9.41;100.00;100621.00;4987256;28;19928;-75
2022/11/04 10:37:08;;;;;;;;;;;;;;;9.41;100.00;100626.28;5005741;28;20395;-75
2022/11/04 10:39:34;;;;;;;;;;;;;;;9.40;100.00;100635.09;5003798;28;19942;-77
2022/11/04 10:42:02;;;;;;;;;;;;;;;9.39;100.00;100634.25;5004930;28;19951;-77
2022/11/04 10:44:29;;;;;;;;;;;;;;;9.36;100.00;100640.53;5015713;28;19936;-77
2022/11/04 10:46:58;;;;;;;;;;;;;;;9.35;100.00;100641.47;5003020;28;21447;-76
2022/11/04 10:49:43;;;;;;;;;;;;;;;9.34;100.00;100647.69;5022326;28;21011;-76
2022/11/04 10:52:09;;;;;;;;;;;;;;;9.36;100.00;100639.66;5018479;28;20055;-76
2022/11/04 10:54:39;;;;;;;;;;;;;;;9.38;100.00;100638.69;5001165;28;19936;-76
2022/11/04 10:57:04;;;;;;;;;;;;;;;9.40;100.00;100637.75;5021218;28;19928;-77
2022/11/04 10:59:33;;;;;;;;;;;;;;;9.38;100.00;100632.56;5021956;28;19932;-77
2022/11/04 11:02:00;;;;;;;;;;;;;;;9.31;100.00;100634.59;5033648;28;21967;-76
2022/11/04 11:04:29;;;;;;;;;;;;;;;9.26;100.00;100636.56;5004886;28;20449;-77
2022/11/04 11:06:55;;;;;;;;;;;;;;;9.19;100.00;100633.34;5020611;28;20433;-77
2022/11/04 11:09:28;;;;;;;;;;;;;;;9.16;100.00;100644.03;5002349;28;19925;-77
2022/11/04 11:11:54;;;;;;;;;;;;;;;9.10;100.00;100639.88;5003361;28;21750;-77
2022/11/04 11:14:29;;;;;;;;;;;;;;;9.07;100.00;100652.34;5001411;28;19931;-77
2022/11/04 11:16:55;;;;;;;;;;;;;;;9.07;100.00;100652.34;5016958;28;20094;-77
2022/11/04 11:19:21;;;;;;;;;;;;;;;9.09;100.00;100661.06;5019726;28;20169;-77
2022/11/04 11:21:54;;;;;;;;;;;;;;;9.09;100.00;100664.56;5001329;28;19932;-77
2022/11/04 11:24:26;;;;;;;;;;;;;;;9.09;100.00;100675.13;5018225;28;20651;-77
2022/11/04 11:26:53;;;;;;;;;;;;;;;9.10;100.00;100682.13;4986112;28;19991;-76
2022/11/04 11:29:20;;;;;;;;;;;;;;;9.15;100.00;100679.28;5018000;28;19928;-74
2022/11/04 11:31:46;;;;;;;;;;;;;;;9.22;100.00;100687.84;5018856;28;20027;-75
2022/11/04 11:34:17;;;;;;;;;;;;;;;9.28;100.00;100687.56;5022705;28;19925;-75
2022/11/04 11:36:43;;;;;;;;;;;;;;;9.35;100.00;100689.03;4988950;28;20388;-75
2022/11/04 11:39:13;;;;;;;;;;;;;;;9.40;100.00;100682.66;4989223;28;20040;-75
2022/11/04 11:42:07;;;;;;;;;;;;;;;9.45;100.00;100680.69;5019835;28;19931;-75
2022/11/04 11:44:33;;;;;;;;;;;;;;;9.51;100.00;100680.44;5007918;28;19986;-75
2022/11/04 11:47:01;;;;;;;;;;;;;;;9.58;100.00;100666.03;5019376;28;19928;-74
2022/11/04 11:49:27;;;;;;;;;;;;;;;9.64;100.00;100676.31;5017350;28;19928;-74
2022/11/04 11:51:53;;;;;;;;;;;;;;;9.71;100.00;100676.06;5019794;28;19940;-75
2022/11/04 11:54:21;;;;;;;;;;;;;;;9.79;100.00;100687.13;5022082;28;20295;-75
2022/11/04 11:56:50;;;;;;;;;;;;;;;9.82;100.00;100678.22;5021362;28;19924;-74
2022/11/04 11:59:18;;;;;;;;;;;;;;;9.86;100.00;100683.28;5002211;28;19929;-75
2022/11/04 12:01:46;;;;;;;;;;;;;;;9.89;100.00;100680.53;5035720;28;19933;-75
2022/11/04 12:04:12;;;;;;;;;;;;;;;9.89;100.00;100684.94;5021072;28;20428;-75
2022/11/04 12:06:56;;;;;;;;;;;;;;;9.89;100.00;100685.81;5005779;28;20038;-75
2022/11/04 12:09:25;;;;;;;;;;;;;;;9.90;100.00;100690.16;5019348;28;20071;-75
2022/11/04 12:11:53;;;;;;;;;;;;;;;9.94;100.00;100693.53;5023919;28;19928;-74
2022/11/04 12:14:23;;;;;;;;;;;;;;;10.00;100.00;100692.38;5024423;28;19929;-75
2022/11/04 12:16:48;;;;;;;;;;;;;;;10.03;100.00;100698.38;5023827;28;19924;-75
2022/11/04 12:19:13;;;;;;;;;;;;;;;10.08;100.00;100710.56;5023845;28;19935;-74
2022/11/04 12:21:53;;;;;;;;;;;;;;;10.11;100.00;100706.00;5023294;28;19929;-74
2022/11/04 12:24:22;;;;;;;;;;;;;;;10.12;100.00;100713.00;5021545;28;19928;-74
2022/11/04 12:27:00;;;;;;;;;;;;;;;10.21;100.00;100713.50;5022819;28;19951;-76
2022/11/04 12:29:51;;;;;;;;;;;;;;;10.30;100.00;100710.44;5023298;28;21049;-76
2022/11/04 12:32:26;;;;;;;;;;;;;;;10.36;100.00;100725.16;5021247;28;20161;-74
2022/11/04 12:35:06;;;;;;;;;;;;;;;10.32;100.00;100714.72;5022195;28;21020;-76
2022/11/04 12:37:54;;;;;;;;;;;;;;;10.31;100.00;100733.31;5023213;28;21792;-74
2022/11/04 12:40:43;;;;;;;;;;;;;;;10.29;100.00;100729.88;5007262;28;19935;-74
2022/11/04 12:43:41;;;;;;;;;;;;;;;10.29;100.00;100729.88;5023743;28;20585;-74
2022/11/04 12:46:15;;;;;;;;;;;;;;;10.30;100.00;100724.50;5008878;28;19924;-74
2022/11/04 12:48:44;;;;;;;;;;;;;;;10.30;100.00;100721.88;5023013;28;19932;-74
2022/11/04 12:51:09;;;;;;;;;;;;;;;10.30;100.00;100723.66;5023584;28;19924;-74
2022/11/04 12:53:47;;;;;;;;;;;;;;;10.27;100.00;100727.31;5023868;28;19943;-74
2022/11/04 12:56:19;;;;;;;;;;;;;;;10.26;100.00;100725.59;5021701;28;20384;-74
2022/11/04 12:59:03;;;;;;;;;;;;;;;10.24;100.00;100731.88;4988914;28;20598;-75
2022/11/04 13:01:31;;;;;;;;;;;;;;;10.25;100.00;100729.16;5023360;28;20685;-75
2022/11/04 13:04:03;;;;;;;;;;;;;;;10.28;100.00;100736.09;5005651;28;19954;-75
2022/11/04 13:06:33;;;;;;;;;;;;;;;10.31;100.00;100735.97;5004993;28;19928;-76
2022/11/04 13:09:11;;;;;;;;;;;;;;;10.30;100.00;100734.25;5006086;28;19935;-76
2022/11/04 13:11:44;;;;;;;;;;;;;;;10.30;100.00;100736.91;5007145;28;19925;-75
2022/11/04 13:14:15;;;;;;;;;;;;;;;10.30;100.00;100740.38;5005381;28;19951;-77
2022/11/04 13:16:41;;;;;;;;;;;;;;;10.29;100.00;100740.44;5022638;28;19928;-76